sensor_id;sensor_type;location;lat;lon;timestamp;temperature;humidity
64705;DHT22;51131;52.298;13.686;2022-12-18T00:01:26;15.20;38.10
64705;DHT22;51131;52.298;13.686;2022-12-18T00:03:53;15.20;38.40
64705;DHT22;51131;52.298;13.686;2022-12-18T00:06:21;15.20;38.90
64705;DHT22;51131;52.298;13.686;2022-12-18T00:08:48;15.20;39.10
64705;DHT22;51131;52.298;13.686;2022-12-18T00:11:15;15.20;38.60
64705;DHT22;51131;52.298;13.686;2022-12-18T00:13:42;15.20;38.00
64705;DHT22;51131;52.298;13.686;2022-12-18T00:16:10;15.20;38.30
64705;DHT22;51131;52.298;13.686;2022-12-18T00:18:37;15.20;39.10
64705;DHT22;51131;52.298;13.686;2022-12-18T00:21:05;15.20;39.30
64705;DHT22;51131;52.298;13.686;2022-12-18T00:23:33;15.20;38.40
64705;DHT22;51131;52.298;13.686;2022-12-18T00:26:01;15.20;37.80
64705;DHT22;51131;52.298;13.686;2022-12-18T00:28:28;15.10;37.60
64705;DHT22;51131;52.298;13.686;2022-12-18T00:31:03;15.20;37.90
64705;DHT22;51131;52.298;13.686;2022-12-18T00:33:30;15.20;38.30
64705;DHT22;51131;52.298;13.686;2022-12-18T00:36:04;15.20;37.90
64705;DHT22;51131;52.298;13.686;2022-12-18T00:38:30;15.20;37.40
64705;DHT22;51131;52.298;13.686;2022-12-18T00:40:57;15.20;37.50
64705;DHT22;51131;52.298;13.686;2022-12-18T00:43:24;15.20;37.90
64705;DHT22;51131;52.298;13.686;2022-12-18T00:45:50;15.10;38.00
64705;DHT22;51131;52.298;13.686;2022-12-18T00:48:17;15.10;37.70
64705;DHT22;51131;52.298;13.686;2022-12-18T00:50:44;15.20;37.30
64705;DHT22;51131;52.298;13.686;2022-12-18T00:53:11;15.20;37.20
64705;DHT22;51131;52.298;13.686;2022-12-18T00:55:39;15.20;37.30
64705;DHT22;51131;52.298;13.686;2022-12-18T00:58:05;15.20;37.30
64705;DHT22;51131;52.298;13.686;2022-12-18T01:00:32;15.20;37.30
64705;DHT22;51131;52.298;13.686;2022-12-18T01:02:59;15.20;36.90
64705;DHT22;51131;52.298;13.686;2022-12-18T01:05:25;15.20;36.70
64705;DHT22;51131;52.298;13.686;2022-12-18T01:07:52;15.10;36.60
64705;DHT22;51131;52.298;13.686;2022-12-18T01:10:19;15.10;36.60
64705;DHT22;51131;52.298;13.686;2022-12-18T01:12:45;15.10;36.60
64705;DHT22;51131;52.298;13.686;2022-12-18T01:15:12;15.10;36.40
64705;DHT22;51131;52.298;13.686;2022-12-18T01:17:39;15.10;36.50
64705;DHT22;51131;52.298;13.686;2022-12-18T01:20:06;15.10;36.70
64705;DHT22;51131;52.298;13.686;2022-12-18T01:22:33;15.10;36.90
64705;DHT22;51131;52.298;13.686;2022-12-18T01:24:59;15.10;37.40
64705;DHT22;51131;52.298;13.686;2022-12-18T01:27:26;15.10;36.40
64705;DHT22;51131;52.298;13.686;2022-12-18T01:29:53;15.10;36.60
64705;DHT22;51131;52.298;13.686;2022-12-18T01:32:19;15.10;36.80
64705;DHT22;51131;52.298;13.686;2022-12-18T01:34:46;15.50;37.10
64705;DHT22;51131;52.298;13.686;2022-12-18T01:37:13;15.10;37.00
64705;DHT22;51131;52.298;13.686;2022-12-18T01:39:39;15.10;36.50
64705;DHT22;51131;52.298;13.686;2022-12-18T01:42:13;15.10;36.60
64705;DHT22;51131;52.298;13.686;2022-12-18T01:47:27;15.10;36.80
64705;DHT22;51131;52.298;13.686;2022-12-18T01:49:55;15.10;36.90
64705;DHT22;51131;52.298;13.686;2022-12-18T01:52:22;15.10;36.60
64705;DHT22;51131;52.298;13.686;2022-12-18T01:54:50;15.10;36.80
64705;DHT22;51131;52.298;13.686;2022-12-18T01:57:17;15.10;36.40
64705;DHT22;51131;52.298;13.686;2022-12-18T01:59:45;15.10;36.30
64705;DHT22;51131;52.298;13.686;2022-12-18T02:02:14;15.10;36.40
64705;DHT22;51131;52.298;13.686;2022-12-18T02:04:41;15.20;36.40
64705;DHT22;51131;52.298;13.686;2022-12-18T02:09:44;15.20;38.00
64705;DHT22;51131;52.298;13.686;2022-12-18T02:12:19;15.20;38.30
64705;DHT22;51131;52.298;13.686;2022-12-18T02:15:00;15.20;38.90
64705;DHT22;51131;52.298;13.686;2022-12-18T02:17:31;15.20;38.00
64705;DHT22;51131;52.298;13.686;2022-12-18T02:20:05;15.20;36.60
64705;DHT22;51131;52.298;13.686;2022-12-18T02:27:34;15.20;37.60
64705;DHT22;51131;52.298;13.686;2022-12-18T02:30:03;15.20;36.60
64705;DHT22;51131;52.298;13.686;2022-12-18T02:32:31;15.10;37.20
64705;DHT22;51131;52.298;13.686;2022-12-18T02:35:00;15.10;36.80
64705;DHT22;51131;52.298;13.686;2022-12-18T02:37:28;15.10;37.40
64705;DHT22;51131;52.298;13.686;2022-12-18T02:39:56;15.10;38.10
64705;DHT22;51131;52.298;13.686;2022-12-18T02:42:23;15.10;38.00
64705;DHT22;51131;52.298;13.686;2022-12-18T02:44:50;15.10;37.30
64705;DHT22;51131;52.298;13.686;2022-12-18T02:47:18;15.10;37.40
64705;DHT22;51131;52.298;13.686;2022-12-18T02:52:44;15.10;36.70
64705;DHT22;51131;52.298;13.686;2022-12-18T03:00:16;15.20;36.40
64705;DHT22;51131;52.298;13.686;2022-12-18T03:02:58;15.20;36.90
64705;DHT22;51131;52.298;13.686;2022-12-18T03:05:30;15.20;36.70
64705;DHT22;51131;52.298;13.686;2022-12-18T03:08:02;15.20;36.80
64705;DHT22;51131;52.298;13.686;2022-12-18T03:10:31;15.20;37.00
64705;DHT22;51131;52.298;13.686;2022-12-18T03:13:00;15.20;36.60
64705;DHT22;51131;52.298;13.686;2022-12-18T03:15:29;15.20;36.80
64705;DHT22;51131;52.298;13.686;2022-12-18T03:17:59;15.20;36.90
64705;DHT22;51131;52.298;13.686;2022-12-18T03:20:28;15.20;36.70
64705;DHT22;51131;52.298;13.686;2022-12-18T03:23:01;15.20;37.10
64705;DHT22;51131;52.298;13.686;2022-12-18T03:25:29;15.10;36.40
64705;DHT22;51131;52.298;13.686;2022-12-18T03:27:57;15.20;36.80
64705;DHT22;51131;52.298;13.686;2022-12-18T03:30:25;15.30;37.00
64705;DHT22;51131;52.298;13.686;2022-12-18T03:32:54;15.20;36.60
64705;DHT22;51131;52.298;13.686;2022-12-18T03:35:30;15.20;36.60
64705;DHT22;51131;52.298;13.686;2022-12-18T03:37:58;15.20;36.60
64705;DHT22;51131;52.298;13.686;2022-12-18T03:43:09;15.20;36.70
64705;DHT22;51131;52.298;13.686;2022-12-18T03:45:37;15.20;36.40
64705;DHT22;51131;52.298;13.686;2022-12-18T03:51:14;15.20;36.70
64705;DHT22;51131;52.298;13.686;2022-12-18T03:56:18;15.20;36.70
64705;DHT22;51131;52.298;13.686;2022-12-18T03:58:47;15.20;36.60
64705;DHT22;51131;52.298;13.686;2022-12-18T04:01:15;15.20;36.50
64705;DHT22;51131;52.298;13.686;2022-12-18T04:03:43;15.20;37.20
64705;DHT22;51131;52.298;13.686;2022-12-18T04:06:11;15.20;36.90
64705;DHT22;51131;52.298;13.686;2022-12-18T04:08:39;15.20;37.00
64705;DHT22;51131;52.298;13.686;2022-12-18T04:11:06;15.20;37.60
64705;DHT22;51131;52.298;13.686;2022-12-18T04:13:34;15.40;36.80
64705;DHT22;51131;52.298;13.686;2022-12-18T04:16:02;15.20;36.90
64705;DHT22;51131;52.298;13.686;2022-12-18T04:18:29;15.20;36.40
64705;DHT22;51131;52.298;13.686;2022-12-18T04:20:56;15.20;36.20
64705;DHT22;51131;52.298;13.686;2022-12-18T04:23:22;15.30;36.60
64705;DHT22;51131;52.298;13.686;2022-12-18T04:25:49;15.20;36.20
64705;DHT22;51131;52.298;13.686;2022-12-18T04:28:16;15.20;36.40
64705;DHT22;51131;52.298;13.686;2022-12-18T04:30:42;15.20;36.50
64705;DHT22;51131;52.298;13.686;2022-12-18T04:33:10;15.20;36.10
64705;DHT22;51131;52.298;13.686;2022-12-18T04:35:36;15.20;36.40
64705;DHT22;51131;52.298;13.686;2022-12-18T04:38:03;15.20;36.40
64705;DHT22;51131;52.298;13.686;2022-12-18T04:40:31;15.20;36.20
64705;DHT22;51131;52.298;13.686;2022-12-18T04:42:57;15.20;36.10
64705;DHT22;51131;52.298;13.686;2022-12-18T04:45:24;15.10;36.10
64705;DHT22;51131;52.298;13.686;2022-12-18T04:47:51;15.20;35.80
64705;DHT22;51131;52.298;13.686;2022-12-18T04:50:17;15.20;36.60
64705;DHT22;51131;52.298;13.686;2022-12-18T04:52:44;15.20;36.10
64705;DHT22;51131;52.298;13.686;2022-12-18T04:55:11;15.20;36.30
64705;DHT22;51131;52.298;13.686;2022-12-18T04:57:37;15.10;36.70
64705;DHT22;51131;52.298;13.686;2022-12-18T05:00:04;15.20;36.20
64705;DHT22;51131;52.298;13.686;2022-12-18T05:02:32;15.20;36.50
64705;DHT22;51131;52.298;13.686;2022-12-18T05:04:59;15.20;36.80
64705;DHT22;51131;52.298;13.686;2022-12-18T05:07:25;15.10;36.20
64705;DHT22;51131;52.298;13.686;2022-12-18T05:09:52;15.20;36.30
64705;DHT22;51131;52.298;13.686;2022-12-18T05:12:19;15.20;36.70
64705;DHT22;51131;52.298;13.686;2022-12-18T05:14:45;15.20;36.30
64705;DHT22;51131;52.298;13.686;2022-12-18T05:17:12;15.20;36.30
64705;DHT22;51131;52.298;13.686;2022-12-18T05:19:39;15.20;36.30
64705;DHT22;51131;52.298;13.686;2022-12-18T05:22:05;15.20;36.00
64705;DHT22;51131;52.298;13.686;2022-12-18T05:24:34;15.20;36.30
64705;DHT22;51131;52.298;13.686;2022-12-18T05:27:00;15.10;36.40
64705;DHT22;51131;52.298;13.686;2022-12-18T05:29:27;15.20;36.10
64705;DHT22;51131;52.298;13.686;2022-12-18T05:31:53;15.20;36.40
64705;DHT22;51131;52.298;13.686;2022-12-18T05:34:20;15.50;36.50
64705;DHT22;51131;52.298;13.686;2022-12-18T05:36:47;15.20;36.20
64705;DHT22;51131;52.298;13.686;2022-12-18T05:39:13;15.20;36.60
64705;DHT22;51131;52.298;13.686;2022-12-18T05:41:40;15.10;36.00
64705;DHT22;51131;52.298;13.686;2022-12-18T05:44:07;15.20;35.90
64705;DHT22;51131;52.298;13.686;2022-12-18T05:46:33;15.10;36.20
64705;DHT22;51131;52.298;13.686;2022-12-18T05:49:01;15.20;36.00
64705;DHT22;51131;52.298;13.686;2022-12-18T05:51:27;15.40;36.10
64705;DHT22;51131;52.298;13.686;2022-12-18T05:53:54;15.20;36.10
64705;DHT22;51131;52.298;13.686;2022-12-18T05:56:21;14.90;35.80
64705;DHT22;51131;52.298;13.686;2022-12-18T05:58:51;15.20;36.10
64705;DHT22;51131;52.298;13.686;2022-12-18T06:01:19;15.30;36.50
64705;DHT22;51131;52.298;13.686;2022-12-18T06:03:46;15.10;36.00
64705;DHT22;51131;52.298;13.686;2022-12-18T06:06:14;15.30;35.90
64705;DHT22;51131;52.298;13.686;2022-12-18T06:08:41;15.10;35.90
64705;DHT22;51131;52.298;13.686;2022-12-18T06:11:12;15.10;35.50
64705;DHT22;51131;52.298;13.686;2022-12-18T06:13:39;15.10;35.70
64705;DHT22;51131;52.298;13.686;2022-12-18T06:16:06;15.10;36.00
64705;DHT22;51131;52.298;13.686;2022-12-18T06:18:33;15.10;35.60
64705;DHT22;51131;52.298;13.686;2022-12-18T06:21:00;15.80;36.10
64705;DHT22;51131;52.298;13.686;2022-12-18T06:23:27;15.10;35.60
64705;DHT22;51131;52.298;13.686;2022-12-18T06:25:53;15.10;35.70
64705;DHT22;51131;52.298;13.686;2022-12-18T06:28:20;15.10;36.20
64705;DHT22;51131;52.298;13.686;2022-12-18T06:30:47;15.10;36.30
64705;DHT22;51131;52.298;13.686;2022-12-18T06:33:15;15.10;36.50
64705;DHT22;51131;52.298;13.686;2022-12-18T06:35:41;16.30;37.10
64705;DHT22;51131;52.298;13.686;2022-12-18T06:38:08;15.20;36.00
64705;DHT22;51131;52.298;13.686;2022-12-18T06:40:36;15.20;35.90
64705;DHT22;51131;52.298;13.686;2022-12-18T06:43:03;15.10;36.20
64705;DHT22;51131;52.298;13.686;2022-12-18T06:45:29;15.10;36.20
64705;DHT22;51131;52.298;13.686;2022-12-18T06:47:56;15.10;35.70
64705;DHT22;51131;52.298;13.686;2022-12-18T06:50:23;15.10;35.70
64705;DHT22;51131;52.298;13.686;2022-12-18T06:52:49;15.10;35.80
64705;DHT22;51131;52.298;13.686;2022-12-18T06:55:16;15.10;35.60
64705;DHT22;51131;52.298;13.686;2022-12-18T06:57:42;15.10;35.50
64705;DHT22;51131;52.298;13.686;2022-12-18T07:00:09;15.10;35.60
64705;DHT22;51131;52.298;13.686;2022-12-18T07:02:36;15.10;35.60
64705;DHT22;51131;52.298;13.686;2022-12-18T07:05:03;15.10;35.80
64705;DHT22;51131;52.298;13.686;2022-12-18T07:07:36;15.10;35.70
64705;DHT22;51131;52.298;13.686;2022-12-18T07:10:03;15.10;35.60
64705;DHT22;51131;52.298;13.686;2022-12-18T07:12:29;15.10;35.60
64705;DHT22;51131;52.298;13.686;2022-12-18T07:14:56;15.10;35.60
64705;DHT22;51131;52.298;13.686;2022-12-18T07:17:22;15.10;35.50
64705;DHT22;51131;52.298;13.686;2022-12-18T07:19:49;15.10;35.60
64705;DHT22;51131;52.298;13.686;2022-12-18T07:22:15;15.10;35.60
64705;DHT22;51131;52.298;13.686;2022-12-18T07:24:42;15.10;35.70
64705;DHT22;51131;52.298;13.686;2022-12-18T07:27:09;15.10;36.20
64705;DHT22;51131;52.298;13.686;2022-12-18T07:29:35;15.10;36.00
64705;DHT22;51131;52.298;13.686;2022-12-18T07:32:03;15.10;35.90
64705;DHT22;51131;52.298;13.686;2022-12-18T07:34:30;15.10;36.40
64705;DHT22;51131;52.298;13.686;2022-12-18T07:36:56;15.10;35.80
64705;DHT22;51131;52.298;13.686;2022-12-18T07:39:23;15.10;35.80
64705;DHT22;51131;52.298;13.686;2022-12-18T07:41:50;15.10;36.20
64705;DHT22;51131;52.298;13.686;2022-12-18T07:44:35;15.10;36.20
64705;DHT22;51131;52.298;13.686;2022-12-18T07:47:02;15.20;36.50
64705;DHT22;51131;52.298;13.686;2022-12-18T07:49:37;15.20;36.80
64705;DHT22;51131;52.298;13.686;2022-12-18T07:52:03;15.20;36.20
64705;DHT22;51131;52.298;13.686;2022-12-18T07:54:30;15.10;36.10
64705;DHT22;51131;52.298;13.686;2022-12-18T07:56:56;15.20;36.70
64705;DHT22;51131;52.298;13.686;2022-12-18T07:59:23;15.20;36.20
64705;DHT22;51131;52.298;13.686;2022-12-18T08:01:50;15.20;36.60
64705;DHT22;51131;52.298;13.686;2022-12-18T08:04:16;15.20;36.20
64705;DHT22;51131;52.298;13.686;2022-12-18T08:06:43;15.10;35.90
64705;DHT22;51131;52.298;13.686;2022-12-18T08:09:13;15.20;36.10
64705;DHT22;51131;52.298;13.686;2022-12-18T08:11:40;15.20;36.00
64705;DHT22;51131;52.298;13.686;2022-12-18T08:14:07;15.20;35.90
64705;DHT22;51131;52.298;13.686;2022-12-18T08:16:33;15.20;35.90
64705;DHT22;51131;52.298;13.686;2022-12-18T08:19:00;15.20;36.70
64705;DHT22;51131;52.298;13.686;2022-12-18T08:21:27;15.20;36.20
64705;DHT22;51131;52.298;13.686;2022-12-18T08:23:56;15.20;36.80
64705;DHT22;51131;52.298;13.686;2022-12-18T08:26:24;15.20;36.40
64705;DHT22;51131;52.298;13.686;2022-12-18T08:28:53;15.30;36.30
64705;DHT22;51131;52.298;13.686;2022-12-18T08:31:20;15.20;36.80
64705;DHT22;51131;52.298;13.686;2022-12-18T08:33:49;15.20;36.40
64705;DHT22;51131;52.298;13.686;2022-12-18T08:36:16;15.20;36.40
64705;DHT22;51131;52.298;13.686;2022-12-18T08:38:43;15.20;36.90
64705;DHT22;51131;52.298;13.686;2022-12-18T08:41:12;15.20;37.00
64705;DHT22;51131;52.298;13.686;2022-12-18T08:43:39;15.20;36.90
64705;DHT22;51131;52.298;13.686;2022-12-18T08:46:24;15.20;37.00
64705;DHT22;51131;52.298;13.686;2022-12-18T08:48:51;15.20;36.10
64705;DHT22;51131;52.298;13.686;2022-12-18T08:51:18;15.20;36.00
64705;DHT22;51131;52.298;13.686;2022-12-18T08:53:45;15.20;36.00
64705;DHT22;51131;52.298;13.686;2022-12-18T08:56:13;15.20;36.20
64705;DHT22;51131;52.298;13.686;2022-12-18T08:58:40;15.30;36.50
64705;DHT22;51131;52.298;13.686;2022-12-18T09:01:07;15.30;37.10
64705;DHT22;51131;52.298;13.686;2022-12-18T09:03:35;15.30;36.90
64705;DHT22;51131;52.298;13.686;2022-12-18T09:06:02;15.40;36.90
64705;DHT22;51131;52.298;13.686;2022-12-18T09:08:29;15.40;36.70
64705;DHT22;51131;52.298;13.686;2022-12-18T09:10:56;15.40;37.40
64705;DHT22;51131;52.298;13.686;2022-12-18T09:13:22;15.40;37.50
64705;DHT22;51131;52.298;13.686;2022-12-18T09:15:50;15.50;38.50
64705;DHT22;51131;52.298;13.686;2022-12-18T09:18:18;15.40;37.20
64705;DHT22;51131;52.298;13.686;2022-12-18T09:20:44;15.70;37.40
64705;DHT22;51131;52.298;13.686;2022-12-18T09:23:11;15.40;36.80
64705;DHT22;51131;52.298;13.686;2022-12-18T09:25:38;15.40;36.90
64705;DHT22;51131;52.298;13.686;2022-12-18T09:28:09;15.40;36.30
64705;DHT22;51131;52.298;13.686;2022-12-18T09:30:37;15.40;36.90
64705;DHT22;51131;52.298;13.686;2022-12-18T09:33:04;15.40;36.70
64705;DHT22;51131;52.298;13.686;2022-12-18T09:35:32;15.40;36.30
64705;DHT22;51131;52.298;13.686;2022-12-18T09:37:59;15.40;36.60
64705;DHT22;51131;52.298;13.686;2022-12-18T09:40:35;15.40;36.80
64705;DHT22;51131;52.298;13.686;2022-12-18T09:43:03;15.40;36.50
64705;DHT22;51131;52.298;13.686;2022-12-18T09:45:44;15.40;36.90
64705;DHT22;51131;52.298;13.686;2022-12-18T09:48:25;15.30;36.50
64705;DHT22;51131;52.298;13.686;2022-12-18T09:50:55;15.30;36.90
64705;DHT22;51131;52.298;13.686;2022-12-18T09:53:24;15.30;36.90
64705;DHT22;51131;52.298;13.686;2022-12-18T09:55:53;15.30;37.00
64705;DHT22;51131;52.298;13.686;2022-12-18T09:58:35;15.30;37.00
64705;DHT22;51131;52.298;13.686;2022-12-18T10:01:10;15.30;36.60
64705;DHT22;51131;52.298;13.686;2022-12-18T10:03:38;15.30;37.00
64705;DHT22;51131;52.298;13.686;2022-12-18T10:06:07;15.30;36.90
64705;DHT22;51131;52.298;13.686;2022-12-18T10:08:39;15.30;36.40
64705;DHT22;51131;52.298;13.686;2022-12-18T10:11:26;15.20;36.60
64705;DHT22;51131;52.298;13.686;2022-12-18T10:13:56;15.30;36.50
64705;DHT22;51131;52.298;13.686;2022-12-18T10:16:29;15.20;38.10
64705;DHT22;51131;52.298;13.686;2022-12-18T10:19:16;15.20;37.60
64705;DHT22;51131;52.298;13.686;2022-12-18T10:21:50;15.20;37.60
64705;DHT22;51131;52.298;13.686;2022-12-18T10:24:24;15.20;37.60
64705;DHT22;51131;52.298;13.686;2022-12-18T10:26:53;15.10;36.50
64705;DHT22;51131;52.298;13.686;2022-12-18T10:29:22;15.20;36.40
64705;DHT22;51131;52.298;13.686;2022-12-18T10:31:51;15.20;36.50
64705;DHT22;51131;52.298;13.686;2022-12-18T10:34:17;15.10;36.60
64705;DHT22;51131;52.298;13.686;2022-12-18T10:36:44;15.20;37.00
64705;DHT22;51131;52.298;13.686;2022-12-18T10:39:18;15.20;37.60
64705;DHT22;51131;52.298;13.686;2022-12-18T10:41:45;15.20;37.60
64705;DHT22;51131;52.298;13.686;2022-12-18T10:44:16;15.20;37.20
64705;DHT22;51131;52.298;13.686;2022-12-18T10:46:44;15.20;36.30
64705;DHT22;51131;52.298;13.686;2022-12-18T10:49:25;15.20;36.80
64705;DHT22;51131;52.298;13.686;2022-12-18T10:52:03;15.20;35.80
64705;DHT22;51131;52.298;13.686;2022-12-18T10:54:30;15.10;35.90
64705;DHT22;51131;52.298;13.686;2022-12-18T10:57:14;15.10;35.80
64705;DHT22;51131;52.298;13.686;2022-12-18T10:59:52;15.10;37.20
64705;DHT22;51131;52.298;13.686;2022-12-18T11:04:52;15.20;36.80
64705;DHT22;51131;52.298;13.686;2022-12-18T11:07:19;15.20;36.10
64705;DHT22;51131;52.298;13.686;2022-12-18T11:09:46;15.20;36.40
64705;DHT22;51131;52.298;13.686;2022-12-18T11:12:25;15.20;35.80
64705;DHT22;51131;52.298;13.686;2022-12-18T11:14:55;15.20;35.90
64705;DHT22;51131;52.298;13.686;2022-12-18T11:19:57;15.20;36.00
64705;DHT22;51131;52.298;13.686;2022-12-18T11:22:25;15.20;36.80
64705;DHT22;51131;52.298;13.686;2022-12-18T11:27:47;15.30;37.40
64705;DHT22;51131;52.298;13.686;2022-12-18T11:30:28;15.30;37.70
64705;DHT22;51131;52.298;13.686;2022-12-18T11:33:13;15.30;37.40
64705;DHT22;51131;52.298;13.686;2022-12-18T11:35:43;15.30;36.90
64705;DHT22;51131;52.298;13.686;2022-12-18T11:38:23;16.00;36.60
64705;DHT22;51131;52.298;13.686;2022-12-18T11:40:55;15.20;35.80
64705;DHT22;51131;52.298;13.686;2022-12-18T11:43:27;15.00;36.90
64705;DHT22;51131;52.298;13.686;2022-12-18T11:45:58;15.20;37.10
64705;DHT22;51131;52.298;13.686;2022-12-18T11:48:27;15.20;36.60
64705;DHT22;51131;52.298;13.686;2022-12-18T11:50:55;15.20;37.10
64705;DHT22;51131;52.298;13.686;2022-12-18T11:53:23;15.20;37.40
64705;DHT22;51131;52.298;13.686;2022-12-18T11:58:34;15.20;37.10
64705;DHT22;51131;52.298;13.686;2022-12-18T12:06:32;15.20;37.40
64705;DHT22;51131;52.298;13.686;2022-12-18T12:09:14;15.20;37.30
64705;DHT22;51131;52.298;13.686;2022-12-18T12:11:52;15.20;37.30
64705;DHT22;51131;52.298;13.686;2022-12-18T12:19:33;15.20;37.30
64705;DHT22;51131;52.298;13.686;2022-12-18T12:22:51;15.20;37.30
64705;DHT22;51131;52.298;13.686;2022-12-18T12:25:05;15.20;37.70
64705;DHT22;51131;52.298;13.686;2022-12-18T12:27:43;15.20;37.40
64705;DHT22;51131;52.298;13.686;2022-12-18T12:35:11;15.20;37.50
64705;DHT22;51131;52.298;13.686;2022-12-18T12:40:20;15.20;37.80
64705;DHT22;51131;52.298;13.686;2022-12-18T12:43:32;15.20;38.20
64705;DHT22;51131;52.298;13.686;2022-12-18T12:46:03;15.20;38.00
64705;DHT22;51131;52.298;13.686;2022-12-18T12:48:34;15.20;37.80
64705;DHT22;51131;52.298;13.686;2022-12-18T12:51:03;15.20;38.00
64705;DHT22;51131;52.298;13.686;2022-12-18T12:53:34;15.20;37.80
64705;DHT22;51131;52.298;13.686;2022-12-18T12:56:03;15.20;37.90
64705;DHT22;51131;52.298;13.686;2022-12-18T12:58:38;15.20;38.00
64705;DHT22;51131;52.298;13.686;2022-12-18T13:01:12;15.20;38.00
64705;DHT22;51131;52.298;13.686;2022-12-18T13:08:55;15.30;38.00
64705;DHT22;51131;52.298;13.686;2022-12-18T13:11:32;15.20;37.80
64705;DHT22;51131;52.298;13.686;2022-12-18T13:14:29;15.20;37.70
64705;DHT22;51131;52.298;13.686;2022-12-18T13:19:43;15.10;37.70
64705;DHT22;51131;52.298;13.686;2022-12-18T13:22:23;15.20;37.80
64705;DHT22;51131;52.298;13.686;2022-12-18T13:24:50;15.10;37.80
64705;DHT22;51131;52.298;13.686;2022-12-18T13:30:11;15.10;37.50
64705;DHT22;51131;52.298;13.686;2022-12-18T13:32:54;15.10;37.60
64705;DHT22;51131;52.298;13.686;2022-12-18T13:38:46;15.10;37.80
64705;DHT22;51131;52.298;13.686;2022-12-18T13:43:46;15.10;37.60
64705;DHT22;51131;52.298;13.686;2022-12-18T13:49:20;15.10;37.60
64705;DHT22;51131;52.298;13.686;2022-12-18T13:51:49;15.10;38.10
64705;DHT22;51131;52.298;13.686;2022-12-18T13:56:46;15.10;37.90
64705;DHT22;51131;52.298;13.686;2022-12-18T13:59:15;15.10;38.10
64705;DHT22;51131;52.298;13.686;2022-12-18T14:01:51;15.10;37.50
64705;DHT22;51131;52.298;13.686;2022-12-18T14:04:20;15.10;37.90
64705;DHT22;51131;52.298;13.686;2022-12-18T14:06:47;15.20;37.90
64705;DHT22;51131;52.298;13.686;2022-12-18T14:09:17;15.10;37.50
64705;DHT22;51131;52.298;13.686;2022-12-18T14:11:50;15.10;37.80
64705;DHT22;51131;52.298;13.686;2022-12-18T14:14:17;15.10;37.60
64705;DHT22;51131;52.298;13.686;2022-12-18T14:16:45;15.10;37.70
64705;DHT22;51131;52.298;13.686;2022-12-18T14:19:14;15.10;38.00
64705;DHT22;51131;52.298;13.686;2022-12-18T14:21:51;15.00;37.50
64705;DHT22;51131;52.298;13.686;2022-12-18T14:24:19;15.00;38.10
64705;DHT22;51131;52.298;13.686;2022-12-18T14:26:47;15.00;37.40
64705;DHT22;51131;52.298;13.686;2022-12-18T14:29:23;15.00;37.10
64705;DHT22;51131;52.298;13.686;2022-12-18T14:34:43;15.00;37.20
64705;DHT22;51131;52.298;13.686;2022-12-18T14:37:10;15.00;37.30
64705;DHT22;51131;52.298;13.686;2022-12-18T14:39:38;15.00;37.70
64705;DHT22;51131;52.298;13.686;2022-12-18T14:42:05;15.00;37.30
64705;DHT22;51131;52.298;13.686;2022-12-18T14:44:31;15.00;37.50
64705;DHT22;51131;52.298;13.686;2022-12-18T14:47:15;15.00;37.30
64705;DHT22;51131;52.298;13.686;2022-12-18T14:49:43;15.00;37.40
64705;DHT22;51131;52.298;13.686;2022-12-18T14:52:28;15.10;37.50
64705;DHT22;51131;52.298;13.686;2022-12-18T14:54:55;15.10;37.40
64705;DHT22;51131;52.298;13.686;2022-12-18T14:57:23;15.10;37.40
64705;DHT22;51131;52.298;13.686;2022-12-18T14:59:50;15.00;37.10
64705;DHT22;51131;52.298;13.686;2022-12-18T15:02:24;15.10;37.00
64705;DHT22;51131;52.298;13.686;2022-12-18T15:05:05;15.00;37.30
64705;DHT22;51131;52.298;13.686;2022-12-18T15:07:42;15.50;37.70
64705;DHT22;51131;52.298;13.686;2022-12-18T15:12:36;14.90;37.10
64705;DHT22;51131;52.298;13.686;2022-12-18T15:15:03;14.90;37.40
64705;DHT22;51131;52.298;13.686;2022-12-18T15:17:30;14.90;37.50
64705;DHT22;51131;52.298;13.686;2022-12-18T15:20:01;14.90;36.90
64705;DHT22;51131;52.298;13.686;2022-12-18T15:24:55;15.00;37.30
64705;DHT22;51131;52.298;13.686;2022-12-18T15:27:33;15.00;37.30
64705;DHT22;51131;52.298;13.686;2022-12-18T15:32:38;15.10;37.20
64705;DHT22;51131;52.298;13.686;2022-12-18T15:37:37;15.10;37.40
64705;DHT22;51131;52.298;13.686;2022-12-18T15:40:05;15.10;37.20
64705;DHT22;51131;52.298;13.686;2022-12-18T15:42:32;15.10;37.40
64705;DHT22;51131;52.298;13.686;2022-12-18T15:45:17;15.40;37.50
64705;DHT22;51131;52.298;13.686;2022-12-18T15:47:45;15.10;37.10
64705;DHT22;51131;52.298;13.686;2022-12-18T15:50:11;15.10;37.30
64705;DHT22;51131;52.298;13.686;2022-12-18T15:52:42;15.10;37.30
64705;DHT22;51131;52.298;13.686;2022-12-18T15:55:13;15.10;37.00
64705;DHT22;51131;52.298;13.686;2022-12-18T15:57:58;15.10;37.20
64705;DHT22;51131;52.298;13.686;2022-12-18T16:00:25;15.10;37.20
64705;DHT22;51131;52.298;13.686;2022-12-18T16:02:52;15.10;38.10
64705;DHT22;51131;52.298;13.686;2022-12-18T16:05:19;15.10;37.40
64705;DHT22;51131;52.298;13.686;2022-12-18T16:07:46;15.10;37.00
64705;DHT22;51131;52.298;13.686;2022-12-18T16:10:13;15.10;36.90
64705;DHT22;51131;52.298;13.686;2022-12-18T16:12:40;15.30;37.30
64705;DHT22;51131;52.298;13.686;2022-12-18T16:15:07;15.10;37.00
64705;DHT22;51131;52.298;13.686;2022-12-18T16:17:36;15.10;37.10
64705;DHT22;51131;52.298;13.686;2022-12-18T16:20:03;15.10;37.20
64705;DHT22;51131;52.298;13.686;2022-12-18T16:22:30;15.10;37.20
64705;DHT22;51131;52.298;13.686;2022-12-18T16:24:57;15.40;37.50
64705;DHT22;51131;52.298;13.686;2022-12-18T16:27:24;15.10;37.10
64705;DHT22;51131;52.298;13.686;2022-12-18T16:29:51;15.10;37.10
64705;DHT22;51131;52.298;13.686;2022-12-18T16:32:18;15.40;37.50
64705;DHT22;51131;52.298;13.686;2022-12-18T16:34:45;15.10;37.00
64705;DHT22;51131;52.298;13.686;2022-12-18T16:37:13;15.10;37.20
64705;DHT22;51131;52.298;13.686;2022-12-18T16:39:41;15.10;37.40
64705;DHT22;51131;52.298;13.686;2022-12-18T16:42:15;15.40;37.30
64705;DHT22;51131;52.298;13.686;2022-12-18T16:44:45;15.10;37.10
64705;DHT22;51131;52.298;13.686;2022-12-18T16:47:12;15.10;37.20
64705;DHT22;51131;52.298;13.686;2022-12-18T16:49:41;15.10;36.90
64705;DHT22;51131;52.298;13.686;2022-12-18T16:52:07;15.10;37.00
64705;DHT22;51131;52.298;13.686;2022-12-18T16:54:34;15.10;36.90
64705;DHT22;51131;52.298;13.686;2022-12-18T16:57:02;15.10;37.00
64705;DHT22;51131;52.298;13.686;2022-12-18T16:59:31;15.10;37.10